sensor_id;sensor_type;location;lat;lon;timestamp;P1;durP1;ratioP1;P2;durP2;ratioP2
52316;SDS011;38725;41.994;21.458;2022-09-02T00:01:00;23.45;;;16.45;;
52316;SDS011;38725;41.994;21.458;2022-09-02T00:03:27;23.45;;;15.73;;
52316;SDS011;38725;41.994;21.458;2022-09-02T00:05:54;20.58;;;14.93;;
52316;SDS011;38725;41.994;21.458;2022-09-02T00:08:20;21.98;;;15.60;;
52316;SDS011;38725;41.994;21.458;2022-09-02T00:10:46;22.40;;;15.55;;
52316;SDS011;38725;41.994;21.458;2022-09-02T00:13:13;20.00;;;14.93;;
52316;SDS011;38725;41.994;21.458;2022-09-02T00:15:40;20.27;;;15.65;;
52316;SDS011;38725;41.994;21.458;2022-09-02T00:18:06;21.42;;;15.85;;
52316;SDS011;38725;41.994;21.458;2022-09-02T00:20:37;23.08;;;14.40;;
52316;SDS011;38725;41.994;21.458;2022-09-02T00:23:03;21.80;;;14.40;;
52316;SDS011;38725;41.994;21.458;2022-09-02T00:25:30;22.05;;;15.63;;
52316;SDS011;38725;41.994;21.458;2022-09-02T00:27:56;19.50;;;13.77;;
52316;SDS011;38725;41.994;21.458;2022-09-02T00:30:22;17.33;;;13.43;;
52316;SDS011;38725;41.994;21.458;2022-09-02T00:32:49;19.60;;;13.52;;
52316;SDS011;38725;41.994;21.458;2022-09-02T00:35:15;19.40;;;13.13;;
52316;SDS011;38725;41.994;21.458;2022-09-02T00:37:41;20.05;;;14.18;;
52316;SDS011;38725;41.994;21.458;2022-09-02T00:40:07;17.85;;;13.65;;
52316;SDS011;38725;41.994;21.458;2022-09-02T00:42:35;18.00;;;13.82;;
52316;SDS011;38725;41.994;21.458;2022-09-02T00:45:02;17.00;;;12.93;;
52316;SDS011;38725;41.994;21.458;2022-09-02T00:47:29;18.00;;;13.27;;
52316;SDS011;38725;41.994;21.458;2022-09-02T00:49:55;17.40;;;13.50;;
52316;SDS011;38725;41.994;21.458;2022-09-02T00:52:29;19.55;;;13.63;;
52316;SDS011;38725;41.994;21.458;2022-09-02T00:55:00;18.27;;;12.85;;
52316;SDS011;38725;41.994;21.458;2022-09-02T00:57:29;19.35;;;13.18;;
52316;SDS011;38725;41.994;21.458;2022-09-02T01:02:29;18.45;;;12.85;;
52316;SDS011;38725;41.994;21.458;2022-09-02T01:04:56;21.10;;;13.20;;
52316;SDS011;38725;41.994;21.458;2022-09-02T01:07:23;18.08;;;13.00;;
52316;SDS011;38725;41.994;21.458;2022-09-02T01:09:49;17.90;;;13.05;;
52316;SDS011;38725;41.994;21.458;2022-09-02T01:12:16;19.40;;;13.60;;
52316;SDS011;38725;41.994;21.458;2022-09-02T01:14:42;16.98;;;12.65;;
52316;SDS011;38725;41.994;21.458;2022-09-02T01:17:08;16.95;;;13.60;;
52316;SDS011;38725;41.994;21.458;2022-09-02T01:19:39;17.63;;;12.85;;
52316;SDS011;38725;41.994;21.458;2022-09-02T01:22:17;19.23;;;13.00;;
52316;SDS011;38725;41.994;21.458;2022-09-02T01:24:44;16.88;;;12.75;;
52316;SDS011;38725;41.994;21.458;2022-09-02T01:27:12;19.25;;;13.43;;
52316;SDS011;38725;41.994;21.458;2022-09-02T01:29:39;17.23;;;13.02;;
52316;SDS011;38725;41.994;21.458;2022-09-02T01:32:05;17.98;;;13.18;;
52316;SDS011;38725;41.994;21.458;2022-09-02T01:34:31;20.33;;;13.02;;
52316;SDS011;38725;41.994;21.458;2022-09-02T01:36:57;16.85;;;13.35;;
52316;SDS011;38725;41.994;21.458;2022-09-02T01:39:23;16.20;;;12.73;;
52316;SDS011;38725;41.994;21.458;2022-09-02T01:41:49;18.90;;;13.93;;
52316;SDS011;38725;41.994;21.458;2022-09-02T01:44:15;19.88;;;12.52;;
52316;SDS011;38725;41.994;21.458;2022-09-02T01:46:41;16.25;;;12.55;;
52316;SDS011;38725;41.994;21.458;2022-09-02T01:49:08;19.38;;;13.05;;
52316;SDS011;38725;41.994;21.458;2022-09-02T01:51:34;17.48;;;12.77;;
52316;SDS011;38725;41.994;21.458;2022-09-02T01:54:00;17.42;;;12.80;;
52316;SDS011;38725;41.994;21.458;2022-09-02T01:56:27;17.67;;;13.60;;
52316;SDS011;38725;41.994;21.458;2022-09-02T01:58:53;17.77;;;12.07;;
52316;SDS011;38725;41.994;21.458;2022-09-02T02:01:19;18.25;;;12.15;;
52316;SDS011;38725;41.994;21.458;2022-09-02T02:03:45;18.27;;;13.00;;
52316;SDS011;38725;41.994;21.458;2022-09-02T02:06:13;17.92;;;13.20;;
52316;SDS011;38725;41.994;21.458;2022-09-02T02:08:40;17.33;;;13.82;;
52316;SDS011;38725;41.994;21.458;2022-09-02T02:11:07;17.70;;;14.27;;
52316;SDS011;38725;41.994;21.458;2022-09-02T02:13:33;20.80;;;14.90;;
52316;SDS011;38725;41.994;21.458;2022-09-02T02:15:59;19.48;;;14.68;;
52316;SDS011;38725;41.994;21.458;2022-09-02T02:18:25;28.33;;;14.82;;
52316;SDS011;38725;41.994;21.458;2022-09-02T02:20:51;20.67;;;13.85;;
52316;SDS011;38725;41.994;21.458;2022-09-02T02:23:18;17.95;;;13.60;;
52316;SDS011;38725;41.994;21.458;2022-09-02T02:25:44;18.35;;;13.80;;
52316;SDS011;38725;41.994;21.458;2022-09-02T02:28:10;18.88;;;14.52;;
52316;SDS011;38725;41.994;21.458;2022-09-02T02:30:38;22.10;;;15.70;;
52316;SDS011;38725;41.994;21.458;2022-09-02T02:33:04;20.45;;;14.95;;
52316;SDS011;38725;41.994;21.458;2022-09-02T02:35:30;20.63;;;15.05;;
52316;SDS011;38725;41.994;21.458;2022-09-02T02:37:57;22.83;;;15.05;;
52316;SDS011;38725;41.994;21.458;2022-09-02T02:40:23;20.52;;;14.95;;
52316;SDS011;38725;41.994;21.458;2022-09-02T02:42:50;23.60;;;15.25;;
52316;SDS011;38725;41.994;21.458;2022-09-02T02:45:17;20.23;;;14.75;;
52316;SDS011;38725;41.994;21.458;2022-09-02T02:47:43;19.00;;;14.50;;
52316;SDS011;38725;41.994;21.458;2022-09-02T02:50:14;27.60;;;15.98;;
52316;SDS011;38725;41.994;21.458;2022-09-02T02:52:41;20.27;;;15.02;;
52316;SDS011;38725;41.994;21.458;2022-09-02T02:55:07;24.27;;;14.90;;
52316;SDS011;38725;41.994;21.458;2022-09-02T02:57:35;25.33;;;15.65;;
52316;SDS011;38725;41.994;21.458;2022-09-02T03:00:10;21.17;;;15.23;;
52316;SDS011;38725;41.994;21.458;2022-09-02T03:02:37;20.90;;;15.00;;
52316;SDS011;38725;41.994;21.458;2022-09-02T03:05:04;21.08;;;14.70;;
52316;SDS011;38725;41.994;21.458;2022-09-02T03:07:30;17.20;;;12.98;;
52316;SDS011;38725;41.994;21.458;2022-09-02T03:09:56;19.60;;;13.95;;
52316;SDS011;38725;41.994;21.458;2022-09-02T03:12:23;17.95;;;13.40;;
52316;SDS011;38725;41.994;21.458;2022-09-02T03:14:49;19.40;;;13.95;;
52316;SDS011;38725;41.994;21.458;2022-09-02T03:17:16;22.20;;;13.75;;
52316;SDS011;38725;41.994;21.458;2022-09-02T03:19:42;18.48;;;13.85;;
52316;SDS011;38725;41.994;21.458;2022-09-02T03:22:08;17.98;;;14.05;;
52316;SDS011;38725;41.994;21.458;2022-09-02T03:24:36;19.17;;;13.57;;
52316;SDS011;38725;41.994;21.458;2022-09-02T03:27:02;20.00;;;12.60;;
52316;SDS011;38725;41.994;21.458;2022-09-02T03:29:29;17.98;;;12.93;;
52316;SDS011;38725;41.994;21.458;2022-09-02T03:31:55;16.30;;;13.05;;
52316;SDS011;38725;41.994;21.458;2022-09-02T03:34:21;16.98;;;12.35;;
52316;SDS011;38725;41.994;21.458;2022-09-02T03:36:47;17.88;;;12.95;;
52316;SDS011;38725;41.994;21.458;2022-09-02T03:39:13;17.30;;;13.10;;
52316;SDS011;38725;41.994;21.458;2022-09-02T03:41:39;17.00;;;12.80;;
52316;SDS011;38725;41.994;21.458;2022-09-02T03:44:06;19.27;;;12.75;;
52316;SDS011;38725;41.994;21.458;2022-09-02T03:46:33;15.85;;;12.10;;
52316;SDS011;38725;41.994;21.458;2022-09-02T03:48:59;17.77;;;13.13;;
52316;SDS011;38725;41.994;21.458;2022-09-02T03:51:26;18.27;;;12.77;;
52316;SDS011;38725;41.994;21.458;2022-09-02T03:53:52;19.75;;;13.45;;
52316;SDS011;38725;41.994;21.458;2022-09-02T03:56:19;19.52;;;14.20;;
52316;SDS011;38725;41.994;21.458;2022-09-02T03:58:46;20.58;;;13.45;;
52316;SDS011;38725;41.994;21.458;2022-09-02T04:01:14;18.90;;;12.68;;
52316;SDS011;38725;41.994;21.458;2022-09-02T04:03:41;19.15;;;13.68;;
52316;SDS011;38725;41.994;21.458;2022-09-02T04:06:10;18.90;;;13.40;;
52316;SDS011;38725;41.994;21.458;2022-09-02T04:08:40;18.23;;;13.60;;
52316;SDS011;38725;41.994;21.458;2022-09-02T04:11:08;17.08;;;12.57;;
52316;SDS011;38725;41.994;21.458;2022-09-02T04:13:35;16.83;;;12.00;;
52316;SDS011;38725;41.994;21.458;2022-09-02T04:16:08;16.67;;;12.75;;
52316;SDS011;38725;41.994;21.458;2022-09-02T04:18:34;18.15;;;12.63;;
52316;SDS011;38725;41.994;21.458;2022-09-02T04:21:00;17.95;;;13.10;;
52316;SDS011;38725;41.994;21.458;2022-09-02T04:23:27;16.52;;;13.10;;
52316;SDS011;38725;41.994;21.458;2022-09-02T04:25:53;17.63;;;11.93;;
52316;SDS011;38725;41.994;21.458;2022-09-02T04:28:19;16.02;;;12.63;;
52316;SDS011;38725;41.994;21.458;2022-09-02T04:30:45;16.85;;;12.95;;
52316;SDS011;38725;41.994;21.458;2022-09-02T04:33:11;16.63;;;12.65;;
52316;SDS011;38725;41.994;21.458;2022-09-02T04:35:44;22.95;;;13.35;;
52316;SDS011;38725;41.994;21.458;2022-09-02T04:38:12;17.20;;;12.93;;
52316;SDS011;38725;41.994;21.458;2022-09-02T04:40:39;19.20;;;11.82;;
52316;SDS011;38725;41.994;21.458;2022-09-02T04:43:05;16.55;;;11.45;;
52316;SDS011;38725;41.994;21.458;2022-09-02T04:45:31;18.50;;;11.75;;
52316;SDS011;38725;41.994;21.458;2022-09-02T04:47:57;14.57;;;11.25;;
52316;SDS011;38725;41.994;21.458;2022-09-02T04:50:24;20.67;;;11.77;;
52316;SDS011;38725;41.994;21.458;2022-09-02T04:52:50;19.75;;;12.43;;
52316;SDS011;38725;41.994;21.458;2022-09-02T04:55:16;15.40;;;10.65;;
52316;SDS011;38725;41.994;21.458;2022-09-02T04:57:42;15.70;;;10.88;;
52316;SDS011;38725;41.994;21.458;2022-09-02T05:00:08;14.77;;;11.45;;
52316;SDS011;38725;41.994;21.458;2022-09-02T05:02:34;17.48;;;11.02;;
52316;SDS011;38725;41.994;21.458;2022-09-02T05:05:01;17.08;;;11.88;;
52316;SDS011;38725;41.994;21.458;2022-09-02T05:07:27;18.98;;;12.30;;
52316;SDS011;38725;41.994;21.458;2022-09-02T05:09:57;17.85;;;11.40;;
52316;SDS011;38725;41.994;21.458;2022-09-02T05:12:23;13.88;;;10.45;;
52316;SDS011;38725;41.994;21.458;2022-09-02T05:14:51;17.13;;;10.82;;
52316;SDS011;38725;41.994;21.458;2022-09-02T05:17:18;13.48;;;9.57;;
52316;SDS011;38725;41.994;21.458;2022-09-02T05:19:44;16.50;;;10.38;;
52316;SDS011;38725;41.994;21.458;2022-09-02T05:22:10;13.13;;;9.15;;
52316;SDS011;38725;41.994;21.458;2022-09-02T05:24:36;12.15;;;9.05;;
52316;SDS011;38725;41.994;21.458;2022-09-02T05:27:02;11.40;;;9.13;;
52316;SDS011;38725;41.994;21.458;2022-09-02T05:29:28;12.70;;;9.18;;
52316;SDS011;38725;41.994;21.458;2022-09-02T05:31:54;13.82;;;9.25;;
52316;SDS011;38725;41.994;21.458;2022-09-02T05:34:21;15.55;;;10.30;;
52316;SDS011;38725;41.994;21.458;2022-09-02T05:36:47;11.85;;;9.68;;
52316;SDS011;38725;41.994;21.458;2022-09-02T05:39:13;17.33;;;10.25;;
52316;SDS011;38725;41.994;21.458;2022-09-02T05:41:39;12.23;;;9.82;;
52316;SDS011;38725;41.994;21.458;2022-09-02T05:44:06;13.35;;;10.30;;
52316;SDS011;38725;41.994;21.458;2022-09-02T05:46:32;14.98;;;9.70;;
52316;SDS011;38725;41.994;21.458;2022-09-02T05:48:59;13.57;;;9.95;;
52316;SDS011;38725;41.994;21.458;2022-09-02T05:54:05;13.60;;;9.30;;
52316;SDS011;38725;41.994;21.458;2022-09-02T05:56:31;12.68;;;9.27;;
52316;SDS011;38725;41.994;21.458;2022-09-02T05:58:57;13.43;;;9.30;;
52316;SDS011;38725;41.994;21.458;2022-09-02T06:01:24;13.02;;;9.25;;
52316;SDS011;38725;41.994;21.458;2022-09-02T06:03:50;13.35;;;9.70;;
52316;SDS011;38725;41.994;21.458;2022-09-02T06:06:17;14.80;;;9.90;;
52316;SDS011;38725;41.994;21.458;2022-09-02T06:08:43;18.52;;;9.57;;
52316;SDS011;38725;41.994;21.458;2022-09-02T06:11:10;12.50;;;9.48;;
52316;SDS011;38725;41.994;21.458;2022-09-02T06:13:37;17.15;;;9.30;;
52316;SDS011;38725;41.994;21.458;2022-09-02T06:16:04;12.82;;;8.80;;
52316;SDS011;38725;41.994;21.458;2022-09-02T06:18:33;12.13;;;9.13;;
52316;SDS011;38725;41.994;21.458;2022-09-02T06:20:59;11.57;;;8.57;;
52316;SDS011;38725;41.994;21.458;2022-09-02T06:23:27;14.52;;;8.77;;
52316;SDS011;38725;41.994;21.458;2022-09-02T06:25:53;10.68;;;8.02;;
52316;SDS011;38725;41.994;21.458;2022-09-02T06:28:19;10.60;;;7.68;;
52316;SDS011;38725;41.994;21.458;2022-09-02T06:30:45;8.98;;;6.68;;
52316;SDS011;38725;41.994;21.458;2022-09-02T06:33:14;9.80;;;7.75;;
52316;SDS011;38725;41.994;21.458;2022-09-02T06:35:42;10.85;;;7.30;;
52316;SDS011;38725;41.994;21.458;2022-09-02T06:38:09;8.23;;;7.07;;
52316;SDS011;38725;41.994;21.458;2022-09-02T06:40:35;8.32;;;6.55;;
52316;SDS011;38725;41.994;21.458;2022-09-02T06:43:02;10.48;;;7.28;;
52316;SDS011;38725;41.994;21.458;2022-09-02T06:45:28;9.07;;;7.47;;
52316;SDS011;38725;41.994;21.458;2022-09-02T06:47:55;10.25;;;7.47;;
52316;SDS011;38725;41.994;21.458;2022-09-02T06:50:21;9.57;;;6.75;;
52316;SDS011;38725;41.994;21.458;2022-09-02T06:52:47;8.20;;;6.32;;
52316;SDS011;38725;41.994;21.458;2022-09-02T06:55:13;9.38;;;6.82;;
52316;SDS011;38725;41.994;21.458;2022-09-02T06:57:42;8.35;;;5.43;;
52316;SDS011;38725;41.994;21.458;2022-09-02T07:00:09;7.97;;;6.22;;
52316;SDS011;38725;41.994;21.458;2022-09-02T07:02:36;11.32;;;6.25;;
52316;SDS011;38725;41.994;21.458;2022-09-02T07:05:02;7.57;;;6.40;;
52316;SDS011;38725;41.994;21.458;2022-09-02T07:07:35;7.93;;;5.97;;
52316;SDS011;38725;41.994;21.458;2022-09-02T07:10:02;7.13;;;5.57;;
52316;SDS011;38725;41.994;21.458;2022-09-02T07:12:29;8.30;;;5.50;;
52316;SDS011;38725;41.994;21.458;2022-09-02T07:14:55;6.95;;;5.85;;
52316;SDS011;38725;41.994;21.458;2022-09-02T07:17:21;7.72;;;6.03;;
52316;SDS011;38725;41.994;21.458;2022-09-02T07:19:49;7.75;;;6.22;;
52316;SDS011;38725;41.994;21.458;2022-09-02T07:22:16;7.40;;;5.55;;
52316;SDS011;38725;41.994;21.458;2022-09-02T07:24:42;8.88;;;5.93;;
52316;SDS011;38725;41.994;21.458;2022-09-02T07:27:09;8.27;;;6.32;;
52316;SDS011;38725;41.994;21.458;2022-09-02T07:29:36;9.60;;;7.22;;
52316;SDS011;38725;41.994;21.458;2022-09-02T07:32:02;7.50;;;6.13;;
52316;SDS011;38725;41.994;21.458;2022-09-02T07:34:29;9.15;;;6.03;;
52316;SDS011;38725;41.994;21.458;2022-09-02T07:36:55;9.52;;;7.35;;
52316;SDS011;38725;41.994;21.458;2022-09-02T07:39:21;9.10;;;6.50;;
52316;SDS011;38725;41.994;21.458;2022-09-02T07:41:48;7.20;;;6.03;;
52316;SDS011;38725;41.994;21.458;2022-09-02T07:44:15;9.18;;;6.30;;
52316;SDS011;38725;41.994;21.458;2022-09-02T07:46:42;11.23;;;6.53;;
52316;SDS011;38725;41.994;21.458;2022-09-02T07:49:09;10.85;;;6.57;;
52316;SDS011;38725;41.994;21.458;2022-09-02T07:51:38;15.93;;;7.15;;
52316;SDS011;38725;41.994;21.458;2022-09-02T07:54:08;9.13;;;7.10;;
52316;SDS011;38725;41.994;21.458;2022-09-02T07:56:34;10.52;;;7.15;;
52316;SDS011;38725;41.994;21.458;2022-09-02T07:59:00;8.13;;;6.50;;
52316;SDS011;38725;41.994;21.458;2022-09-02T08:01:27;11.30;;;6.93;;
52316;SDS011;38725;41.994;21.458;2022-09-02T08:03:53;9.52;;;6.10;;
52316;SDS011;38725;41.994;21.458;2022-09-02T08:06:19;8.75;;;6.03;;
52316;SDS011;38725;41.994;21.458;2022-09-02T08:08:48;6.20;;;4.80;;
52316;SDS011;38725;41.994;21.458;2022-09-02T08:11:14;6.88;;;5.20;;
52316;SDS011;38725;41.994;21.458;2022-09-02T08:13:40;10.98;;;4.95;;
52316;SDS011;38725;41.994;21.458;2022-09-02T08:16:06;8.25;;;4.72;;
52316;SDS011;38725;41.994;21.458;2022-09-02T08:18:33;6.22;;;4.53;;
52316;SDS011;38725;41.994;21.458;2022-09-02T08:20:59;8.20;;;4.70;;
52316;SDS011;38725;41.994;21.458;2022-09-02T08:23:26;5.57;;;4.78;;
52316;SDS011;38725;41.994;21.458;2022-09-02T08:25:52;6.05;;;4.10;;
52316;SDS011;38725;41.994;21.458;2022-09-02T08:28:18;4.18;;;3.78;;
52316;SDS011;38725;41.994;21.458;2022-09-02T08:30:44;4.63;;;4.15;;
52316;SDS011;38725;41.994;21.458;2022-09-02T08:33:10;5.30;;;4.57;;
52316;SDS011;38725;41.994;21.458;2022-09-02T08:35:37;3.80;;;3.20;;
52316;SDS011;38725;41.994;21.458;2022-09-02T08:38:03;4.75;;;3.50;;
52316;SDS011;38725;41.994;21.458;2022-09-02T08:40:36;4.60;;;3.53;;
52316;SDS011;38725;41.994;21.458;2022-09-02T08:43:04;4.40;;;3.80;;
52316;SDS011;38725;41.994;21.458;2022-09-02T08:45:35;4.28;;;3.40;;
52316;SDS011;38725;41.994;21.458;2022-09-02T08:50:28;5.47;;;3.85;;
52316;SDS011;38725;41.994;21.458;2022-09-02T08:55:26;4.82;;;3.97;;
52316;SDS011;38725;41.994;21.458;2022-09-02T08:57:53;5.57;;;3.70;;
52316;SDS011;38725;41.994;21.458;2022-09-02T09:00:20;4.68;;;3.53;;
52316;SDS011;38725;41.994;21.458;2022-09-02T09:02:58;6.28;;;4.22;;
52316;SDS011;38725;41.994;21.458;2022-09-02T09:11:04;5.13;;;4.30;;
52316;SDS011;38725;41.994;21.458;2022-09-02T09:13:20;5.13;;;4.20;;
52316;SDS011;38725;41.994;21.458;2022-09-02T09:18:37;5.82;;;4.18;;
52316;SDS011;38725;41.994;21.458;2022-09-02T09:21:03;6.35;;;5.10;;
52316;SDS011;38725;41.994;21.458;2022-09-02T09:23:30;5.80;;;4.05;;
52316;SDS011;38725;41.994;21.458;2022-09-02T09:26:19;7.38;;;4.35;;
52316;SDS011;38725;41.994;21.458;2022-09-02T09:28:45;4.82;;;3.95;;
52316;SDS011;38725;41.994;21.458;2022-09-02T09:31:21;6.20;;;4.70;;
52316;SDS011;38725;41.994;21.458;2022-09-02T09:33:59;23.13;;;5.65;;
52316;SDS011;38725;41.994;21.458;2022-09-02T09:36:48;7.72;;;5.55;;
52316;SDS011;38725;41.994;21.458;2022-09-02T09:39:16;7.28;;;3.97;;
52316;SDS011;38725;41.994;21.458;2022-09-02T09:41:43;6.15;;;4.55;;
52316;SDS011;38725;41.994;21.458;2022-09-02T09:44:09;5.32;;;3.63;;
52316;SDS011;38725;41.994;21.458;2022-09-02T09:46:35;9.02;;;6.88;;
52316;SDS011;38725;41.994;21.458;2022-09-02T09:49:01;6.85;;;4.18;;
52316;SDS011;38725;41.994;21.458;2022-09-02T09:51:27;4.85;;;3.55;;
52316;SDS011;38725;41.994;21.458;2022-09-02T09:54:12;6.97;;;4.18;;
52316;SDS011;38725;41.994;21.458;2022-09-02T09:56:39;3.92;;;3.28;;
52316;SDS011;38725;41.994;21.458;2022-09-02T09:59:06;4.10;;;3.22;;
52316;SDS011;38725;41.994;21.458;2022-09-02T10:01:33;4.75;;;3.25;;
52316;SDS011;38725;41.994;21.458;2022-09-02T10:06:44;4.45;;;3.70;;
52316;SDS011;38725;41.994;21.458;2022-09-02T10:14:19;6.00;;;3.58;;
52316;SDS011;38725;41.994;21.458;2022-09-02T10:19:32;4.82;;;3.75;;
52316;SDS011;38725;41.994;21.458;2022-09-02T10:27:14;5.57;;;3.83;;
52316;SDS011;38725;41.994;21.458;2022-09-02T10:32:23;5.63;;;3.65;;
52316;SDS011;38725;41.994;21.458;2022-09-02T10:40:22;4.95;;;3.63;;
52316;SDS011;38725;41.994;21.458;2022-09-02T10:48:52;3.95;;;2.85;;
52316;SDS011;38725;41.994;21.458;2022-09-02T10:51:25;4.43;;;3.55;;
52316;SDS011;38725;41.994;21.458;2022-09-02T10:56:40;4.10;;;3.00;;
52316;SDS011;38725;41.994;21.458;2022-09-02T10:59:17;4.47;;;2.80;;
52316;SDS011;38725;41.994;21.458;2022-09-02T11:01:55;4.13;;;3.10;;
52316;SDS011;38725;41.994;21.458;2022-09-02T11:06:50;4.47;;;2.95;;
52316;SDS011;38725;41.994;21.458;2022-09-02T11:09:31;4.45;;;3.47;;
52316;SDS011;38725;41.994;21.458;2022-09-02T11:12:03;3.83;;;2.50;;
52316;SDS011;38725;41.994;21.458;2022-09-02T11:19:52;10.32;;;3.95;;
52316;SDS011;38725;41.994;21.458;2022-09-02T11:22:36;5.28;;;3.20;;
52316;SDS011;38725;41.994;21.458;2022-09-02T11:25:10;6.97;;;3.75;;
52316;SDS011;38725;41.994;21.458;2022-09-02T11:27:42;7.70;;;4.43;;
52316;SDS011;38725;41.994;21.458;2022-09-02T11:30:15;4.63;;;3.88;;
52316;SDS011;38725;41.994;21.458;2022-09-02T11:35:24;6.97;;;4.18;;
52316;SDS011;38725;41.994;21.458;2022-09-02T11:46:03;4.40;;;4.00;;
52316;SDS011;38725;41.994;21.458;2022-09-02T11:49:14;6.07;;;4.60;;
52316;SDS011;38725;41.994;21.458;2022-09-02T11:54:06;6.50;;;4.30;;
52316;SDS011;38725;41.994;21.458;2022-09-02T11:56:38;8.27;;;5.05;;
52316;SDS011;38725;41.994;21.458;2022-09-02T11:59:06;5.97;;;4.78;;
52316;SDS011;38725;41.994;21.458;2022-09-02T12:01:36;11.35;;;4.97;;
52316;SDS011;38725;41.994;21.458;2022-09-02T12:04:17;5.85;;;4.40;;
52316;SDS011;38725;41.994;21.458;2022-09-02T12:15:00;7.82;;;5.80;;
52316;SDS011;38725;41.994;21.458;2022-09-02T12:20:11;6.85;;;6.15;;
52316;SDS011;38725;41.994;21.458;2022-09-02T12:22:56;7.20;;;6.50;;
52316;SDS011;38725;41.994;21.458;2022-09-02T12:33:40;8.90;;;7.80;;
52316;SDS011;38725;41.994;21.458;2022-09-02T12:36:08;8.63;;;7.70;;
52316;SDS011;38725;41.994;21.458;2022-09-02T12:38:38;7.78;;;7.07;;
52316;SDS011;38725;41.994;21.458;2022-09-02T12:44:13;8.98;;;8.07;;
52316;SDS011;38725;41.994;21.458;2022-09-02T12:47:07;9.13;;;8.07;;
52316;SDS011;38725;41.994;21.458;2022-09-02T12:54:23;13.63;;;8.32;;
52316;SDS011;38725;41.994;21.458;2022-09-02T12:56:49;12.93;;;9.07;;
52316;SDS011;38725;41.994;21.458;2022-09-02T12:59:27;12.45;;;8.82;;
52316;SDS011;38725;41.994;21.458;2022-09-02T13:01:58;11.30;;;8.93;;
52316;SDS011;38725;41.994;21.458;2022-09-02T13:04:31;12.15;;;8.98;;
52316;SDS011;38725;41.994;21.458;2022-09-02T13:07:14;11.43;;;9.20;;
52316;SDS011;38725;41.994;21.458;2022-09-02T13:15:16;10.95;;;9.38;;
52316;SDS011;38725;41.994;21.458;2022-09-02T13:17:45;13.68;;;9.75;;
52316;SDS011;38725;41.994;21.458;2022-09-02T13:33:15;10.48;;;7.95;;
52316;SDS011;38725;41.994;21.458;2022-09-02T13:35:41;10.48;;;7.45;;
52316;SDS011;38725;41.994;21.458;2022-09-02T13:38:10;10.93;;;8.43;;
52316;SDS011;38725;41.994;21.458;2022-09-02T13:40:37;10.30;;;8.10;;
52316;SDS011;38725;41.994;21.458;2022-09-02T13:45:39;9.27;;;7.88;;
52316;SDS011;38725;41.994;21.458;2022-09-02T13:48:07;8.95;;;7.85;;
52316;SDS011;38725;41.994;21.458;2022-09-02T13:50:35;18.02;;;8.10;;
52316;SDS011;38725;41.994;21.458;2022-09-02T13:53:03;11.43;;;7.90;;
52316;SDS011;38725;41.994;21.458;2022-09-02T13:55:29;11.15;;;7.70;;
52316;SDS011;38725;41.994;21.458;2022-09-02T13:57:57;10.82;;;7.70;;
52316;SDS011;38725;41.994;21.458;2022-09-02T14:00:29;15.43;;;8.55;;
52316;SDS011;38725;41.994;21.458;2022-09-02T14:03:04;9.68;;;6.38;;
52316;SDS011;38725;41.994;21.458;2022-09-02T14:07:57;9.40;;;6.88;;
52316;SDS011;38725;41.994;21.458;2022-09-02T14:10:24;8.48;;;5.78;;
52316;SDS011;38725;41.994;21.458;2022-09-02T14:12:51;7.50;;;5.63;;
52316;SDS011;38725;41.994;21.458;2022-09-02T14:15:22;10.88;;;5.30;;
52316;SDS011;38725;41.994;21.458;2022-09-02T14:20:33;8.68;;;6.07;;
52316;SDS011;38725;41.994;21.458;2022-09-02T14:22:59;8.65;;;5.80;;
52316;SDS011;38725;41.994;21.458;2022-09-02T14:25:26;10.45;;;5.60;;
52316;SDS011;38725;41.994;21.458;2022-09-02T14:27:55;9.45;;;5.50;;
52316;SDS011;38725;41.994;21.458;2022-09-02T14:30:40;7.03;;;5.38;;
52316;SDS011;38725;41.994;21.458;2022-09-02T14:41:11;8.40;;;6.10;;
52316;SDS011;38725;41.994;21.458;2022-09-02T14:43:45;9.85;;;6.15;;
52316;SDS011;38725;41.994;21.458;2022-09-02T14:46:14;7.82;;;5.28;;
52316;SDS011;38725;41.994;21.458;2022-09-02T14:48:41;7.95;;;5.05;;
52316;SDS011;38725;41.994;21.458;2022-09-02T14:51:07;6.60;;;4.22;;
52316;SDS011;38725;41.994;21.458;2022-09-02T14:53:34;6.35;;;4.13;;
52316;SDS011;38725;41.994;21.458;2022-09-02T14:56:04;7.15;;;4.82;;
52316;SDS011;38725;41.994;21.458;2022-09-02T14:58:30;8.25;;;5.80;;
52316;SDS011;38725;41.994;21.458;2022-09-02T15:00:57;8.25;;;5.00;;
52316;SDS011;38725;41.994;21.458;2022-09-02T15:03:24;9.40;;;4.70;;
52316;SDS011;38725;41.994;21.458;2022-09-02T15:05:50;8.15;;;4.93;;
52316;SDS011;38725;41.994;21.458;2022-09-02T15:08:17;9.52;;;5.18;;
52316;SDS011;38725;41.994;21.458;2022-09-02T15:10:44;9.10;;;4.82;;
52316;SDS011;38725;41.994;21.458;2022-09-02T15:13:16;7.70;;;4.90;;
52316;SDS011;38725;41.994;21.458;2022-09-02T15:15:44;7.78;;;5.03;;
52316;SDS011;38725;41.994;21.458;2022-09-02T15:18:10;7.53;;;4.63;;
52316;SDS011;38725;41.994;21.458;2022-09-02T15:20:36;9.52;;;5.68;;
52316;SDS011;38725;41.994;21.458;2022-09-02T15:23:03;9.25;;;5.28;;
52316;SDS011;38725;41.994;21.458;2022-09-02T15:25:29;11.93;;;5.93;;
52316;SDS011;38725;41.994;21.458;2022-09-02T15:27:55;8.95;;;5.47;;
52316;SDS011;38725;41.994;21.458;2022-09-02T15:30:21;10.60;;;5.47;;
52316;SDS011;38725;41.994;21.458;2022-09-02T15:32:47;7.88;;;5.15;;
52316;SDS011;38725;41.994;21.458;2022-09-02T15:35:14;8.82;;;5.85;;
52316;SDS011;38725;41.994;21.458;2022-09-02T15:37:40;9.50;;;5.13;;
52316;SDS011;38725;41.994;21.458;2022-09-02T15:40:07;10.35;;;5.28;;
52316;SDS011;38725;41.994;21.458;2022-09-02T15:42:33;10.68;;;5.43;;
52316;SDS011;38725;41.994;21.458;2022-09-02T15:45:00;11.32;;;5.55;;
52316;SDS011;38725;41.994;21.458;2022-09-02T15:47:27;8.40;;;5.22;;
52316;SDS011;38725;41.994;21.458;2022-09-02T15:49:54;15.45;;;5.70;;
52316;SDS011;38725;41.994;21.458;2022-09-02T15:52:23;13.85;;;5.55;;
52316;SDS011;38725;41.994;21.458;2022-09-02T15:54:50;14.88;;;6.30;;
52316;SDS011;38725;41.994;21.458;2022-09-02T15:57:16;10.50;;;5.95;;
52316;SDS011;38725;41.994;21.458;2022-09-02T15:59:42;10.07;;;5.95;;
52316;SDS011;38725;41.994;21.458;2022-09-02T16:02:08;13.73;;;6.47;;
52316;SDS011;38725;41.994;21.458;2022-09-02T16:04:34;10.68;;;6.28;;
52316;SDS011;38725;41.994;21.458;2022-09-02T16:07:00;11.77;;;7.20;;
52316;SDS011;38725;41.994;21.458;2022-09-02T16:09:27;12.18;;;6.82;;
52316;SDS011;38725;41.994;21.458;2022-09-02T16:11:53;14.40;;;7.65;;
52316;SDS011;38725;41.994;21.458;2022-09-02T16:14:23;11.02;;;7.00;;
52316;SDS011;38725;41.994;21.458;2022-09-02T16:16:49;14.52;;;8.18;;
52316;SDS011;38725;41.994;21.458;2022-09-02T16:19:18;17.02;;;8.68;;
52316;SDS011;38725;41.994;21.458;2022-09-02T16:21:45;16.90;;;8.63;;
52316;SDS011;38725;41.994;21.458;2022-09-02T16:24:11;14.77;;;8.35;;
52316;SDS011;38725;41.994;21.458;2022-09-02T16:26:38;15.82;;;8.45;;
52316;SDS011;38725;41.994;21.458;2022-09-02T16:29:06;14.35;;;7.75;;
52316;SDS011;38725;41.994;21.458;2022-09-02T16:31:33;16.35;;;7.47;;
52316;SDS011;38725;41.994;21.458;2022-09-02T16:34:03;16.08;;;8.02;;
52316;SDS011;38725;41.994;21.458;2022-09-02T16:36:31;12.00;;;8.07;;
52316;SDS011;38725;41.994;21.458;2022-09-02T16:38:57;13.40;;;8.20;;